sensor_id;sensor_type;location;lat;lon;timestamp;P1;durP1;ratioP1;P2;durP2;ratioP2
69310;SDS011;56430;48.154;16.458;2024-01-15T00:00:45;15.50;;;4.35;;
69310;SDS011;56430;48.154;16.458;2024-01-15T00:03:13;16.77;;;4.70;;
69310;SDS011;56430;48.154;16.458;2024-01-15T00:05:40;14.63;;;4.45;;
69310;SDS011;56430;48.154;16.458;2024-01-15T00:08:09;13.60;;;4.53;;
69310;SDS011;56430;48.154;16.458;2024-01-15T00:10:36;18.15;;;4.35;;
69310;SDS011;56430;48.154;16.458;2024-01-15T00:13:06;15.23;;;4.45;;
69310;SDS011;56430;48.154;16.458;2024-01-15T00:15:33;16.20;;;4.55;;
69310;SDS011;56430;48.154;16.458;2024-01-15T00:18:00;15.20;;;4.10;;
69310;SDS011;56430;48.154;16.458;2024-01-15T00:20:27;19.20;;;4.63;;
69310;SDS011;56430;48.154;16.458;2024-01-15T00:22:54;14.85;;;4.60;;
69310;SDS011;56430;48.154;16.458;2024-01-15T00:25:23;12.55;;;4.03;;
69310;SDS011;56430;48.154;16.458;2024-01-15T00:27:50;14.65;;;4.82;;
69310;SDS011;56430;48.154;16.458;2024-01-15T00:30:17;12.52;;;4.20;;
69310;SDS011;56430;48.154;16.458;2024-01-15T00:32:44;11.90;;;3.90;;
69310;SDS011;56430;48.154;16.458;2024-01-15T00:35:11;12.63;;;4.07;;
69310;SDS011;56430;48.154;16.458;2024-01-15T00:37:39;12.23;;;3.55;;
69310;SDS011;56430;48.154;16.458;2024-01-15T00:40:06;13.60;;;3.53;;
69310;SDS011;56430;48.154;16.458;2024-01-15T00:42:35;11.27;;;3.80;;
69310;SDS011;56430;48.154;16.458;2024-01-15T00:45:03;11.90;;;3.27;;
69310;SDS011;56430;48.154;16.458;2024-01-15T00:47:33;10.20;;;3.30;;
69310;SDS011;56430;48.154;16.458;2024-01-15T00:50:00;13.25;;;4.05;;
69310;SDS011;56430;48.154;16.458;2024-01-15T00:52:28;13.27;;;3.67;;
69310;SDS011;56430;48.154;16.458;2024-01-15T00:54:55;10.10;;;3.42;;
69310;SDS011;56430;48.154;16.458;2024-01-15T00:57:22;13.87;;;3.80;;
69310;SDS011;56430;48.154;16.458;2024-01-15T00:59:51;14.50;;;3.83;;
69310;SDS011;56430;48.154;16.458;2024-01-15T01:02:18;12.50;;;3.25;;
69310;SDS011;56430;48.154;16.458;2024-01-15T01:04:45;12.95;;;4.28;;
69310;SDS011;56430;48.154;16.458;2024-01-15T01:07:12;14.55;;;4.15;;
69310;SDS011;56430;48.154;16.458;2024-01-15T01:09:39;12.03;;;3.60;;
69310;SDS011;56430;48.154;16.458;2024-01-15T01:12:07;13.20;;;4.20;;
69310;SDS011;56430;48.154;16.458;2024-01-15T01:14:34;12.55;;;4.03;;
69310;SDS011;56430;48.154;16.458;2024-01-15T01:17:02;12.52;;;4.25;;
69310;SDS011;56430;48.154;16.458;2024-01-15T01:19:30;13.93;;;5.00;;
69310;SDS011;56430;48.154;16.458;2024-01-15T01:21:57;18.07;;;4.50;;
69310;SDS011;56430;48.154;16.458;2024-01-15T01:24:24;14.07;;;3.97;;
69310;SDS011;56430;48.154;16.458;2024-01-15T01:26:51;12.75;;;4.50;;
69310;SDS011;56430;48.154;16.458;2024-01-15T01:29:18;15.90;;;5.03;;
69310;SDS011;56430;48.154;16.458;2024-01-15T01:31:45;13.63;;;3.88;;
69310;SDS011;56430;48.154;16.458;2024-01-15T01:34:15;14.43;;;4.37;;
69310;SDS011;56430;48.154;16.458;2024-01-15T01:36:43;14.05;;;4.53;;
69310;SDS011;56430;48.154;16.458;2024-01-15T01:39:10;12.88;;;3.90;;
69310;SDS011;56430;48.154;16.458;2024-01-15T01:41:38;12.73;;;3.47;;
69310;SDS011;56430;48.154;16.458;2024-01-15T01:44:05;10.43;;;3.60;;
69310;SDS011;56430;48.154;16.458;2024-01-15T01:46:32;12.37;;;3.73;;
69310;SDS011;56430;48.154;16.458;2024-01-15T01:49:00;12.35;;;3.97;;
69310;SDS011;56430;48.154;16.458;2024-01-15T01:51:32;12.65;;;3.95;;
69310;SDS011;56430;48.154;16.458;2024-01-15T01:54:00;11.30;;;3.75;;
69310;SDS011;56430;48.154;16.458;2024-01-15T01:56:27;13.57;;;4.43;;
69310;SDS011;56430;48.154;16.458;2024-01-15T01:58:55;9.57;;;3.43;;
69310;SDS011;56430;48.154;16.458;2024-01-15T02:01:22;11.10;;;4.25;;
69310;SDS011;56430;48.154;16.458;2024-01-15T02:03:49;11.52;;;3.42;;
69310;SDS011;56430;48.154;16.458;2024-01-15T02:06:16;14.57;;;3.83;;
69310;SDS011;56430;48.154;16.458;2024-01-15T02:08:45;12.85;;;4.47;;
69310;SDS011;56430;48.154;16.458;2024-01-15T02:11:12;15.27;;;4.13;;
69310;SDS011;56430;48.154;16.458;2024-01-15T02:13:39;14.93;;;4.00;;
69310;SDS011;56430;48.154;16.458;2024-01-15T02:16:06;17.17;;;5.20;;
69310;SDS011;56430;48.154;16.458;2024-01-15T02:18:39;11.80;;;4.32;;
69310;SDS011;56430;48.154;16.458;2024-01-15T02:21:07;14.13;;;4.45;;
69310;SDS011;56430;48.154;16.458;2024-01-15T02:23:36;14.03;;;4.50;;
69310;SDS011;56430;48.154;16.458;2024-01-15T02:26:03;13.50;;;4.60;;
69310;SDS011;56430;48.154;16.458;2024-01-15T02:28:31;13.40;;;4.63;;
69310;SDS011;56430;48.154;16.458;2024-01-15T02:30:59;14.45;;;4.50;;
69310;SDS011;56430;48.154;16.458;2024-01-15T02:33:26;15.00;;;4.88;;
69310;SDS011;56430;48.154;16.458;2024-01-15T02:35:53;12.60;;;3.97;;
69310;SDS011;56430;48.154;16.458;2024-01-15T02:38:21;12.25;;;4.20;;
69310;SDS011;56430;48.154;16.458;2024-01-15T02:40:49;11.43;;;3.90;;
69310;SDS011;56430;48.154;16.458;2024-01-15T02:43:16;12.85;;;3.90;;
69310;SDS011;56430;48.154;16.458;2024-01-15T02:45:44;10.30;;;3.85;;
69310;SDS011;56430;48.154;16.458;2024-01-15T02:48:11;13.87;;;3.53;;
69310;SDS011;56430;48.154;16.458;2024-01-15T02:50:38;11.45;;;3.53;;
69310;SDS011;56430;48.154;16.458;2024-01-15T02:53:05;13.30;;;4.03;;
69310;SDS011;56430;48.154;16.458;2024-01-15T02:55:32;12.63;;;3.45;;
69310;SDS011;56430;48.154;16.458;2024-01-15T02:58:01;7.90;;;3.28;;
69310;SDS011;56430;48.154;16.458;2024-01-15T03:00:28;13.17;;;3.50;;
69310;SDS011;56430;48.154;16.458;2024-01-15T03:02:55;9.57;;;2.95;;
69310;SDS011;56430;48.154;16.458;2024-01-15T03:05:22;12.68;;;3.60;;
69310;SDS011;56430;48.154;16.458;2024-01-15T03:07:50;9.80;;;2.72;;
69310;SDS011;56430;48.154;16.458;2024-01-15T03:10:17;10.77;;;2.70;;
69310;SDS011;56430;48.154;16.458;2024-01-15T03:12:44;10.63;;;2.40;;
69310;SDS011;56430;48.154;16.458;2024-01-15T03:15:12;10.63;;;2.55;;
69310;SDS011;56430;48.154;16.458;2024-01-15T03:17:41;7.85;;;2.13;;
69310;SDS011;56430;48.154;16.458;2024-01-15T03:20:08;10.30;;;2.83;;
69310;SDS011;56430;48.154;16.458;2024-01-15T03:22:36;8.80;;;2.80;;
69310;SDS011;56430;48.154;16.458;2024-01-15T03:25:03;7.17;;;2.47;;
69310;SDS011;56430;48.154;16.458;2024-01-15T03:27:31;8.88;;;2.55;;
69310;SDS011;56430;48.154;16.458;2024-01-15T03:29:58;12.57;;;2.55;;
69310;SDS011;56430;48.154;16.458;2024-01-15T03:32:27;10.52;;;2.75;;
69310;SDS011;56430;48.154;16.458;2024-01-15T03:34:54;11.60;;;3.22;;
69310;SDS011;56430;48.154;16.458;2024-01-15T03:37:21;8.77;;;2.33;;
69310;SDS011;56430;48.154;16.458;2024-01-15T03:39:48;10.73;;;3.10;;
69310;SDS011;56430;48.154;16.458;2024-01-15T03:42:15;10.60;;;2.58;;
69310;SDS011;56430;48.154;16.458;2024-01-15T03:44:42;10.88;;;3.00;;
69310;SDS011;56430;48.154;16.458;2024-01-15T03:47:09;9.50;;;3.30;;
69310;SDS011;56430;48.154;16.458;2024-01-15T03:49:38;18.60;;;4.30;;
69310;SDS011;56430;48.154;16.458;2024-01-15T03:52:05;12.25;;;3.22;;
69310;SDS011;56430;48.154;16.458;2024-01-15T03:54:32;17.30;;;4.93;;
69310;SDS011;56430;48.154;16.458;2024-01-15T03:56:59;11.05;;;3.45;;
69310;SDS011;56430;48.154;16.458;2024-01-15T03:59:26;13.15;;;3.72;;
69310;SDS011;56430;48.154;16.458;2024-01-15T04:01:54;11.13;;;3.43;;
69310;SDS011;56430;48.154;16.458;2024-01-15T04:04:21;14.43;;;3.70;;
69310;SDS011;56430;48.154;16.458;2024-01-15T04:06:49;14.20;;;3.92;;
69310;SDS011;56430;48.154;16.458;2024-01-15T04:09:16;11.80;;;3.15;;
69310;SDS011;56430;48.154;16.458;2024-01-15T04:11:43;11.20;;;3.90;;
69310;SDS011;56430;48.154;16.458;2024-01-15T04:14:10;13.30;;;3.90;;
69310;SDS011;56430;48.154;16.458;2024-01-15T04:16:38;12.23;;;3.90;;
69310;SDS011;56430;48.154;16.458;2024-01-15T04:19:05;8.82;;;2.80;;
69310;SDS011;56430;48.154;16.458;2024-01-15T04:21:32;11.65;;;3.65;;
69310;SDS011;56430;48.154;16.458;2024-01-15T04:24:00;8.40;;;2.55;;
69310;SDS011;56430;48.154;16.458;2024-01-15T04:26:28;11.47;;;3.90;;
69310;SDS011;56430;48.154;16.458;2024-01-15T04:28:55;10.50;;;2.97;;
69310;SDS011;56430;48.154;16.458;2024-01-15T04:31:22;11.07;;;3.00;;
69310;SDS011;56430;48.154;16.458;2024-01-15T04:33:50;9.02;;;2.90;;
69310;SDS011;56430;48.154;16.458;2024-01-15T04:36:17;12.57;;;3.22;;
69310;SDS011;56430;48.154;16.458;2024-01-15T04:38:44;10.10;;;2.90;;
69310;SDS011;56430;48.154;16.458;2024-01-15T04:41:13;14.07;;;3.28;;
69310;SDS011;56430;48.154;16.458;2024-01-15T04:43:41;7.75;;;2.88;;
69310;SDS011;56430;48.154;16.458;2024-01-15T04:46:08;10.10;;;3.60;;
69310;SDS011;56430;48.154;16.458;2024-01-15T04:48:35;12.02;;;3.55;;
69310;SDS011;56430;48.154;16.458;2024-01-15T04:51:03;10.30;;;3.10;;
69310;SDS011;56430;48.154;16.458;2024-01-15T04:53:31;10.52;;;3.45;;
69310;SDS011;56430;48.154;16.458;2024-01-15T04:55:58;11.68;;;2.92;;
69310;SDS011;56430;48.154;16.458;2024-01-15T04:58:27;10.02;;;3.42;;
69310;SDS011;56430;48.154;16.458;2024-01-15T05:00:54;8.45;;;3.10;;
69310;SDS011;56430;48.154;16.458;2024-01-15T05:03:21;10.20;;;3.20;;
69310;SDS011;56430;48.154;16.458;2024-01-15T05:05:49;11.77;;;3.22;;
69310;SDS011;56430;48.154;16.458;2024-01-15T05:08:16;9.45;;;3.30;;
69310;SDS011;56430;48.154;16.458;2024-01-15T05:10:43;12.15;;;4.38;;
69310;SDS011;56430;48.154;16.458;2024-01-15T05:13:10;11.73;;;4.25;;
69310;SDS011;56430;48.154;16.458;2024-01-15T05:15:39;10.33;;;3.20;;
69310;SDS011;56430;48.154;16.458;2024-01-15T05:18:06;10.52;;;3.85;;
69310;SDS011;56430;48.154;16.458;2024-01-15T05:20:33;10.68;;;3.47;;
69310;SDS011;56430;48.154;16.458;2024-01-15T05:23:01;9.00;;;2.95;;
69310;SDS011;56430;48.154;16.458;2024-01-15T05:25:28;11.48;;;4.18;;
69310;SDS011;56430;48.154;16.458;2024-01-15T05:27:55;8.50;;;2.70;;
69310;SDS011;56430;48.154;16.458;2024-01-15T05:30:22;11.80;;;3.97;;
69310;SDS011;56430;48.154;16.458;2024-01-15T05:32:50;9.52;;;3.15;;
69310;SDS011;56430;48.154;16.458;2024-01-15T05:35:18;10.85;;;3.40;;
69310;SDS011;56430;48.154;16.458;2024-01-15T05:37:45;9.68;;;3.28;;
69310;SDS011;56430;48.154;16.458;2024-01-15T05:40:12;10.87;;;3.43;;
69310;SDS011;56430;48.154;16.458;2024-01-15T05:42:40;9.65;;;3.38;;
69310;SDS011;56430;48.154;16.458;2024-01-15T05:45:08;11.68;;;3.30;;
69310;SDS011;56430;48.154;16.458;2024-01-15T05:47:35;10.93;;;3.35;;
69310;SDS011;56430;48.154;16.458;2024-01-15T05:50:04;10.75;;;3.13;;
69310;SDS011;56430;48.154;16.458;2024-01-15T05:52:32;11.93;;;3.37;;
69310;SDS011;56430;48.154;16.458;2024-01-15T05:54:59;10.52;;;3.55;;
69310;SDS011;56430;48.154;16.458;2024-01-15T05:57:26;11.85;;;3.55;;
69310;SDS011;56430;48.154;16.458;2024-01-15T05:59:53;7.55;;;3.03;;
69310;SDS011;56430;48.154;16.458;2024-01-15T06:02:21;7.68;;;2.63;;
69310;SDS011;56430;48.154;16.458;2024-01-15T06:04:48;9.80;;;2.83;;
69310;SDS011;56430;48.154;16.458;2024-01-15T06:07:16;8.88;;;2.70;;
69310;SDS011;56430;48.154;16.458;2024-01-15T06:09:43;7.10;;;2.63;;
69310;SDS011;56430;48.154;16.458;2024-01-15T06:12:10;4.97;;;1.77;;
69310;SDS011;56430;48.154;16.458;2024-01-15T06:14:38;8.93;;;2.30;;
69310;SDS011;56430;48.154;16.458;2024-01-15T06:17:06;9.33;;;2.53;;
69310;SDS011;56430;48.154;16.458;2024-01-15T06:19:34;9.23;;;3.17;;
69310;SDS011;56430;48.154;16.458;2024-01-15T06:22:01;14.20;;;3.60;;
69310;SDS011;56430;48.154;16.458;2024-01-15T06:24:29;12.18;;;3.30;;
69310;SDS011;56430;48.154;16.458;2024-01-15T06:26:56;8.80;;;2.80;;
69310;SDS011;56430;48.154;16.458;2024-01-15T06:29:25;10.60;;;2.57;;
69310;SDS011;56430;48.154;16.458;2024-01-15T06:31:52;7.45;;;2.10;;
69310;SDS011;56430;48.154;16.458;2024-01-15T06:34:19;14.52;;;3.30;;
69310;SDS011;56430;48.154;16.458;2024-01-15T06:36:46;10.48;;;2.83;;
69310;SDS011;56430;48.154;16.458;2024-01-15T06:39:14;9.30;;;2.92;;
69310;SDS011;56430;48.154;16.458;2024-01-15T06:41:42;9.77;;;3.00;;
69310;SDS011;56430;48.154;16.458;2024-01-15T06:44:09;10.27;;;3.15;;
69310;SDS011;56430;48.154;16.458;2024-01-15T06:46:41;12.75;;;3.22;;
69310;SDS011;56430;48.154;16.458;2024-01-15T06:49:09;9.85;;;3.38;;
69310;SDS011;56430;48.154;16.458;2024-01-15T06:51:36;10.63;;;2.95;;
69310;SDS011;56430;48.154;16.458;2024-01-15T06:54:04;15.10;;;3.53;;
69310;SDS011;56430;48.154;16.458;2024-01-15T06:56:31;7.13;;;2.13;;
69310;SDS011;56430;48.154;16.458;2024-01-15T06:59:00;11.02;;;3.00;;
69310;SDS011;56430;48.154;16.458;2024-01-15T07:01:29;10.00;;;3.60;;
69310;SDS011;56430;48.154;16.458;2024-01-15T07:03:56;11.35;;;3.70;;
69310;SDS011;56430;48.154;16.458;2024-01-15T07:06:23;12.37;;;3.77;;
69310;SDS011;56430;48.154;16.458;2024-01-15T07:08:50;10.63;;;3.40;;
69310;SDS011;56430;48.154;16.458;2024-01-15T07:11:17;11.18;;;2.92;;
69310;SDS011;56430;48.154;16.458;2024-01-15T07:13:44;7.40;;;2.50;;
69310;SDS011;56430;48.154;16.458;2024-01-15T07:16:13;9.77;;;3.40;;
69310;SDS011;56430;48.154;16.458;2024-01-15T07:18:41;6.47;;;1.70;;
69310;SDS011;56430;48.154;16.458;2024-01-15T07:21:08;14.23;;;3.08;;
69310;SDS011;56430;48.154;16.458;2024-01-15T07:23:35;7.95;;;2.83;;
69310;SDS011;56430;48.154;16.458;2024-01-15T07:26:02;13.90;;;2.67;;
69310;SDS011;56430;48.154;16.458;2024-01-15T07:28:30;8.15;;;2.50;;
69310;SDS011;56430;48.154;16.458;2024-01-15T07:30:58;8.27;;;2.57;;
69310;SDS011;56430;48.154;16.458;2024-01-15T07:33:28;10.13;;;2.95;;
69310;SDS011;56430;48.154;16.458;2024-01-15T07:35:55;5.95;;;1.67;;
69310;SDS011;56430;48.154;16.458;2024-01-15T07:38:22;7.00;;;2.22;;
69310;SDS011;56430;48.154;16.458;2024-01-15T07:40:49;9.95;;;2.78;;
69310;SDS011;56430;48.154;16.458;2024-01-15T07:43:16;6.10;;;1.97;;
69310;SDS011;56430;48.154;16.458;2024-01-15T07:45:43;9.02;;;2.65;;
69310;SDS011;56430;48.154;16.458;2024-01-15T07:48:11;7.32;;;2.00;;
69310;SDS011;56430;48.154;16.458;2024-01-15T07:50:40;13.07;;;2.63;;
69310;SDS011;56430;48.154;16.458;2024-01-15T07:53:07;9.48;;;2.60;;
69310;SDS011;56430;48.154;16.458;2024-01-15T07:55:34;10.37;;;2.13;;
69310;SDS011;56430;48.154;16.458;2024-01-15T07:58:01;8.80;;;2.47;;
69310;SDS011;56430;48.154;16.458;2024-01-15T08:00:28;8.63;;;2.40;;
69310;SDS011;56430;48.154;16.458;2024-01-15T08:02:55;6.40;;;2.03;;
69310;SDS011;56430;48.154;16.458;2024-01-15T08:05:23;6.05;;;2.25;;
69310;SDS011;56430;48.154;16.458;2024-01-15T08:07:51;8.47;;;2.73;;
69310;SDS011;56430;48.154;16.458;2024-01-15T08:10:18;6.18;;;1.80;;
69310;SDS011;56430;48.154;16.458;2024-01-15T08:12:45;11.73;;;2.42;;
69310;SDS011;56430;48.154;16.458;2024-01-15T08:15:12;7.28;;;2.08;;
69310;SDS011;56430;48.154;16.458;2024-01-15T08:17:40;8.52;;;2.55;;
69310;SDS011;56430;48.154;16.458;2024-01-15T08:20:07;8.30;;;2.67;;
69310;SDS011;56430;48.154;16.458;2024-01-15T08:22:36;7.63;;;2.05;;
69310;SDS011;56430;48.154;16.458;2024-01-15T08:25:04;4.30;;;0.90;;
69310;SDS011;56430;48.154;16.458;2024-01-15T08:27:32;8.43;;;2.60;;
69310;SDS011;56430;48.154;16.458;2024-01-15T08:29:59;11.27;;;1.77;;
69310;SDS011;56430;48.154;16.458;2024-01-15T08:32:26;6.43;;;2.00;;
69310;SDS011;56430;48.154;16.458;2024-01-15T08:34:53;7.07;;;1.67;;
69310;SDS011;56430;48.154;16.458;2024-01-15T08:37:20;7.80;;;2.00;;
69310;SDS011;56430;48.154;16.458;2024-01-15T08:39:48;6.55;;;1.75;;
69310;SDS011;56430;48.154;16.458;2024-01-15T08:42:16;6.15;;;2.22;;
69310;SDS011;56430;48.154;16.458;2024-01-15T08:44:43;6.97;;;2.10;;
69310;SDS011;56430;48.154;16.458;2024-01-15T08:47:10;6.75;;;2.33;;
69310;SDS011;56430;48.154;16.458;2024-01-15T08:49:37;8.45;;;2.50;;
69310;SDS011;56430;48.154;16.458;2024-01-15T08:52:06;5.38;;;1.58;;
69310;SDS011;56430;48.154;16.458;2024-01-15T08:54:33;5.40;;;1.88;;
69310;SDS011;56430;48.154;16.458;2024-01-15T08:57:00;9.53;;;2.70;;
69310;SDS011;56430;48.154;16.458;2024-01-15T08:59:28;6.45;;;1.95;;
69310;SDS011;56430;48.154;16.458;2024-01-15T09:01:56;5.95;;;2.00;;
69310;SDS011;56430;48.154;16.458;2024-01-15T09:04:23;5.97;;;2.30;;
69310;SDS011;56430;48.154;16.458;2024-01-15T09:06:50;5.22;;;1.90;;
69310;SDS011;56430;48.154;16.458;2024-01-15T09:09:17;7.03;;;2.17;;
69310;SDS011;56430;48.154;16.458;2024-01-15T09:11:45;6.07;;;1.85;;
69310;SDS011;56430;48.154;16.458;2024-01-15T09:14:12;6.47;;;2.40;;
69310;SDS011;56430;48.154;16.458;2024-01-15T09:16:41;6.65;;;2.08;;
69310;SDS011;56430;48.154;16.458;2024-01-15T09:19:08;4.35;;;1.83;;
69310;SDS011;56430;48.154;16.458;2024-01-15T09:21:35;12.00;;;2.50;;
69310;SDS011;56430;48.154;16.458;2024-01-15T09:24:05;7.13;;;2.03;;
69310;SDS011;56430;48.154;16.458;2024-01-15T09:26:32;5.15;;;1.35;;
69310;SDS011;56430;48.154;16.458;2024-01-15T09:28:59;5.93;;;1.80;;
69310;SDS011;56430;48.154;16.458;2024-01-15T09:31:28;5.15;;;2.10;;
69310;SDS011;56430;48.154;16.458;2024-01-15T09:33:57;6.47;;;1.70;;
69310;SDS011;56430;48.154;16.458;2024-01-15T09:36:25;5.13;;;1.70;;
69310;SDS011;56430;48.154;16.458;2024-01-15T09:38:53;4.28;;;1.40;;
69310;SDS011;56430;48.154;16.458;2024-01-15T09:41:20;7.60;;;1.77;;
69310;SDS011;56430;48.154;16.458;2024-01-15T09:43:47;5.70;;;1.80;;
69310;SDS011;56430;48.154;16.458;2024-01-15T09:46:15;5.03;;;1.80;;
69310;SDS011;56430;48.154;16.458;2024-01-15T09:48:43;5.95;;;1.70;;
69310;SDS011;56430;48.154;16.458;2024-01-15T09:51:11;5.93;;;1.80;;
69310;SDS011;56430;48.154;16.458;2024-01-15T09:53:39;6.63;;;1.83;;
69310;SDS011;56430;48.154;16.458;2024-01-15T09:56:07;5.50;;;1.40;;
69310;SDS011;56430;48.154;16.458;2024-01-15T09:58:35;7.07;;;1.70;;
69310;SDS011;56430;48.154;16.458;2024-01-15T10:01:02;4.03;;;1.35;;
69310;SDS011;56430;48.154;16.458;2024-01-15T10:03:30;5.50;;;1.70;;
69310;SDS011;56430;48.154;16.458;2024-01-15T10:05:57;8.15;;;1.60;;
69310;SDS011;56430;48.154;16.458;2024-01-15T10:08:27;5.78;;;1.60;;
69310;SDS011;56430;48.154;16.458;2024-01-15T10:10:54;6.17;;;1.90;;
69310;SDS011;56430;48.154;16.458;2024-01-15T10:13:21;6.72;;;1.80;;
69310;SDS011;56430;48.154;16.458;2024-01-15T10:15:49;6.10;;;1.88;;
69310;SDS011;56430;48.154;16.458;2024-01-15T10:18:16;5.70;;;1.50;;
69310;SDS011;56430;48.154;16.458;2024-01-15T10:20:44;5.10;;;1.92;;
69310;SDS011;56430;48.154;16.458;2024-01-15T10:23:11;5.43;;;1.67;;
69310;SDS011;56430;48.154;16.458;2024-01-15T10:25:40;5.72;;;1.70;;
69310;SDS011;56430;48.154;16.458;2024-01-15T10:28:08;4.85;;;1.67;;
69310;SDS011;56430;48.154;16.458;2024-01-15T10:30:35;5.57;;;1.38;;
69310;SDS011;56430;48.154;16.458;2024-01-15T10:33:03;5.45;;;1.52;;
69310;SDS011;56430;48.154;16.458;2024-01-15T10:35:31;4.57;;;1.40;;
69310;SDS011;56430;48.154;16.458;2024-01-15T10:37:58;4.53;;;1.50;;
69310;SDS011;56430;48.154;16.458;2024-01-15T10:40:26;5.07;;;1.50;;
69310;SDS011;56430;48.154;16.458;2024-01-15T10:42:55;6.20;;;1.80;;
69310;SDS011;56430;48.154;16.458;2024-01-15T10:45:22;4.57;;;1.50;;
69310;SDS011;56430;48.154;16.458;2024-01-15T10:47:49;4.87;;;1.10;;
69310;SDS011;56430;48.154;16.458;2024-01-15T10:50:17;3.95;;;1.30;;
69310;SDS011;56430;48.154;16.458;2024-01-15T10:52:44;4.93;;;1.60;;
69310;SDS011;56430;48.154;16.458;2024-01-15T10:55:11;4.10;;;1.23;;
69310;SDS011;56430;48.154;16.458;2024-01-15T10:57:38;7.65;;;1.23;;
69310;SDS011;56430;48.154;16.458;2024-01-15T11:00:07;4.53;;;1.47;;
69310;SDS011;56430;48.154;16.458;2024-01-15T11:02:40;4.28;;;1.17;;
69310;SDS011;56430;48.154;16.458;2024-01-15T11:05:07;4.22;;;1.00;;
69310;SDS011;56430;48.154;16.458;2024-01-15T11:07:35;3.30;;;0.93;;
69310;SDS011;56430;48.154;16.458;2024-01-15T11:10:03;4.63;;;1.25;;
69310;SDS011;56430;48.154;16.458;2024-01-15T11:12:30;4.67;;;1.90;;
69310;SDS011;56430;48.154;16.458;2024-01-15T11:15:01;4.13;;;1.20;;
69310;SDS011;56430;48.154;16.458;2024-01-15T11:20:27;4.15;;;1.25;;
69310;SDS011;56430;48.154;16.458;2024-01-15T11:22:54;3.42;;;1.13;;
69310;SDS011;56430;48.154;16.458;2024-01-15T11:25:23;4.07;;;1.30;;
69310;SDS011;56430;48.154;16.458;2024-01-15T11:27:50;5.85;;;1.15;;
69310;SDS011;56430;48.154;16.458;2024-01-15T11:30:19;5.22;;;1.70;;
69310;SDS011;56430;48.154;16.458;2024-01-15T11:32:46;3.38;;;1.02;;
69310;SDS011;56430;48.154;16.458;2024-01-15T11:35:15;4.47;;;1.35;;
69310;SDS011;56430;48.154;16.458;2024-01-15T11:37:57;4.13;;;1.37;;
69310;SDS011;56430;48.154;16.458;2024-01-15T11:40:36;7.75;;;1.40;;
69310;SDS011;56430;48.154;16.458;2024-01-15T11:43:04;6.53;;;1.13;;
69310;SDS011;56430;48.154;16.458;2024-01-15T11:45:31;5.25;;;1.10;;
69310;SDS011;56430;48.154;16.458;2024-01-15T11:48:09;4.32;;;1.13;;
69310;SDS011;56430;48.154;16.458;2024-01-15T11:50:40;4.27;;;1.23;;
69310;SDS011;56430;48.154;16.458;2024-01-15T11:53:13;7.40;;;1.20;;
69310;SDS011;56430;48.154;16.458;2024-01-15T11:55:44;4.47;;;1.05;;
69310;SDS011;56430;48.154;16.458;2024-01-15T11:58:14;4.07;;;0.95;;
69310;SDS011;56430;48.154;16.458;2024-01-15T12:00:42;5.78;;;1.40;;
69310;SDS011;56430;48.154;16.458;2024-01-15T12:03:10;3.63;;;1.00;;
69310;SDS011;56430;48.154;16.458;2024-01-15T12:05:38;3.53;;;1.10;;
69310;SDS011;56430;48.154;16.458;2024-01-15T12:08:07;7.07;;;1.30;;
69310;SDS011;56430;48.154;16.458;2024-01-15T12:10:36;8.30;;;1.02;;
69310;SDS011;56430;48.154;16.458;2024-01-15T12:13:04;7.63;;;1.40;;
69310;SDS011;56430;48.154;16.458;2024-01-15T12:15:33;6.73;;;1.60;;
69310;SDS011;56430;48.154;16.458;2024-01-15T12:18:01;3.65;;;1.10;;
69310;SDS011;56430;48.154;16.458;2024-01-15T12:20:29;3.10;;;0.80;;
69310;SDS011;56430;48.154;16.458;2024-01-15T12:22:58;5.95;;;1.10;;
69310;SDS011;56430;48.154;16.458;2024-01-15T12:25:25;4.45;;;1.08;;
69310;SDS011;56430;48.154;16.458;2024-01-15T12:27:53;3.03;;;0.87;;
69310;SDS011;56430;48.154;16.458;2024-01-15T12:30:20;3.90;;;1.00;;
69310;SDS011;56430;48.154;16.458;2024-01-15T12:32:48;10.98;;;1.45;;
69310;SDS011;56430;48.154;16.458;2024-01-15T12:35:15;5.95;;;1.55;;
69310;SDS011;56430;48.154;16.458;2024-01-15T12:37:42;4.45;;;1.40;;
69310;SDS011;56430;48.154;16.458;2024-01-15T12:40:13;4.77;;;1.10;;
69310;SDS011;56430;48.154;16.458;2024-01-15T12:42:41;4.03;;;1.00;;
69310;SDS011;56430;48.154;16.458;2024-01-15T12:45:09;4.43;;;1.20;;
69310;SDS011;56430;48.154;16.458;2024-01-15T12:47:36;4.68;;;1.50;;
69310;SDS011;56430;48.154;16.458;2024-01-15T12:50:06;3.70;;;1.20;;
69310;SDS011;56430;48.154;16.458;2024-01-15T12:52:34;3.97;;;0.97;;
69310;SDS011;56430;48.154;16.458;2024-01-15T12:55:04;4.35;;;1.20;;
69310;SDS011;56430;48.154;16.458;2024-01-15T12:57:33;3.47;;;0.95;;
69310;SDS011;56430;48.154;16.458;2024-01-15T13:00:01;3.28;;;1.00;;
69310;SDS011;56430;48.154;16.458;2024-01-15T13:02:31;4.15;;;0.88;;
69310;SDS011;56430;48.154;16.458;2024-01-15T13:04:59;3.37;;;0.80;;
69310;SDS011;56430;48.154;16.458;2024-01-15T13:07:26;3.28;;;0.82;;
69310;SDS011;56430;48.154;16.458;2024-01-15T13:09:54;3.80;;;1.00;;
69310;SDS011;56430;48.154;16.458;2024-01-15T13:12:21;5.57;;;1.17;;
69310;SDS011;56430;48.154;16.458;2024-01-15T13:14:49;3.58;;;0.98;;
69310;SDS011;56430;48.154;16.458;2024-01-15T13:17:16;2.93;;;0.80;;
69310;SDS011;56430;48.154;16.458;2024-01-15T13:19:44;3.35;;;0.55;;
69310;SDS011;56430;48.154;16.458;2024-01-15T13:22:12;2.40;;;0.63;;
69310;SDS011;56430;48.154;16.458;2024-01-15T13:24:40;2.97;;;0.80;;
69310;SDS011;56430;48.154;16.458;2024-01-15T13:27:08;4.45;;;1.15;;
69310;SDS011;56430;48.154;16.458;2024-01-15T13:29:36;4.90;;;0.90;;
69310;SDS011;56430;48.154;16.458;2024-01-15T13:32:04;3.53;;;0.90;;
69310;SDS011;56430;48.154;16.458;2024-01-15T13:34:32;5.00;;;1.63;;
69310;SDS011;56430;48.154;16.458;2024-01-15T13:36:59;9.73;;;1.00;;
69310;SDS011;56430;48.154;16.458;2024-01-15T13:39:26;3.75;;;1.08;;
69310;SDS011;56430;48.154;16.458;2024-01-15T13:41:54;4.37;;;0.60;;
69310;SDS011;56430;48.154;16.458;2024-01-15T13:44:21;3.53;;;0.50;;
69310;SDS011;56430;48.154;16.458;2024-01-15T13:46:49;3.00;;;0.70;;
69310;SDS011;56430;48.154;16.458;2024-01-15T13:49:17;3.35;;;0.70;;
69310;SDS011;56430;48.154;16.458;2024-01-15T13:51:44;2.38;;;0.40;;
69310;SDS011;56430;48.154;16.458;2024-01-15T13:54:12;3.10;;;0.83;;
69310;SDS011;56430;48.154;16.458;2024-01-15T13:56:39;2.88;;;0.63;;
69310;SDS011;56430;48.154;16.458;2024-01-15T13:59:07;2.80;;;0.80;;
69310;SDS011;56430;48.154;16.458;2024-01-15T14:01:34;2.80;;;0.60;;
69310;SDS011;56430;48.154;16.458;2024-01-15T14:04:01;3.80;;;0.90;;
69310;SDS011;56430;48.154;16.458;2024-01-15T14:06:30;2.40;;;0.73;;
69310;SDS011;56430;48.154;16.458;2024-01-15T14:08:57;4.15;;;0.82;;
69310;SDS011;56430;48.154;16.458;2024-01-15T14:11:24;3.47;;;0.88;;
69310;SDS011;56430;48.154;16.458;2024-01-15T14:13:51;4.25;;;0.68;;
69310;SDS011;56430;48.154;16.458;2024-01-15T14:16:18;2.58;;;0.70;;
69310;SDS011;56430;48.154;16.458;2024-01-15T14:18:46;4.03;;;0.70;;
69310;SDS011;56430;48.154;16.458;2024-01-15T14:21:13;2.67;;;0.63;;
69310;SDS011;56430;48.154;16.458;2024-01-15T14:23:42;2.78;;;0.50;;
69310;SDS011;56430;48.154;16.458;2024-01-15T14:26:09;4.28;;;0.77;;
69310;SDS011;56430;48.154;16.458;2024-01-15T14:28:36;3.83;;;0.65;;
69310;SDS011;56430;48.154;16.458;2024-01-15T14:31:04;3.93;;;0.50;;
69310;SDS011;56430;48.154;16.458;2024-01-15T14:33:31;3.85;;;0.70;;